Time;durP1;ratioP1;P1;durP2;ratioP2;P2;SDS_P1;SDS_P2;PMS_P1;PMS_P2;Temp;Humidity;BMP_temperature;BMP_pressure;BME280_temperature;BME280_humidity;BME280_pressure;Samples;Min_cycle;Max_cycle;Signal;HPM_P1;HPM_P2
2022/09/12 00:00:30;;;;;;;18.47;17.53;;;18.00;37.90;;;;;;4971821;28;20178;-53
2022/09/12 00:02:57;;;;;;;17.97;17.00;;;18.00;38.00;;;;;;4972183;28;20433;-56
2022/09/12 00:05:23;;;;;;;19.57;17.97;;;18.00;38.10;;;;;;4971928;28;21245;-56
2022/09/12 00:07:49;;;;;;;18.50;17.40;;;18.00;38.00;;;;;;4973108;28;20808;-57
2022/09/12 00:10:15;;;;;;;18.30;17.00;;;18.10;38.00;;;;;;4971671;28;20723;-56
2022/09/12 00:12:40;;;;;;;18.27;17.37;;;18.00;37.90;;;;;;4971511;28;20181;-56
2022/09/12 00:15:06;;;;;;;19.50;18.17;;;18.00;37.90;;;;;;4971279;28;20418;-56
2022/09/12 00:17:37;;;;;;;17.27;16.37;;;18.00;37.70;;;;;;4970737;28;20265;-56
2022/09/12 00:20:08;;;;;;;17.70;16.80;;;18.00;38.00;;;;;;4971286;28;20418;-57
2022/09/12 00:22:34;;;;;;;17.73;16.70;;;18.00;37.90;;;;;;4971666;28;20449;-54
2022/09/12 00:25:00;;;;;;;18.13;16.83;;;18.00;37.70;;;;;;4971518;28;20521;-53
2022/09/12 00:27:26;;;;;;;18.87;17.67;;;18.00;37.60;;;;;;4971484;28;20560;-54
2022/09/12 00:29:52;;;;;;;18.80;17.60;;;18.00;37.40;;;;;;4970698;28;20175;-54
2022/09/12 00:32:18;;;;;;;18.40;17.40;;;18.00;37.20;;;;;;4970771;28;20425;-55
2022/09/12 00:34:44;;;;;;;16.90;16.10;;;18.00;37.40;;;;;;4970483;28;20752;-55
2022/09/12 00:37:10;;;;;;;17.90;17.00;;;18.00;37.60;;;;;;4970730;28;20859;-54
2022/09/12 00:39:35;;;;;;;17.60;16.70;;;17.90;38.20;;;;;;4970764;28;20190;-55
2022/09/12 00:42:01;;;;;;;18.60;17.70;;;17.90;37.60;;;;;;4971326;28;20183;-60
2022/09/12 00:44:27;;;;;;;19.47;18.47;;;17.90;37.70;;;;;;4970411;28;20181;-56
2022/09/12 00:47:24;;;;;;;18.17;17.17;;;17.80;37.50;;;;;;4970666;28;20588;-55
2022/09/12 00:49:58;;;;;;;17.83;16.87;;;17.80;37.20;;;;;;4970414;28;20187;-56
2022/09/12 00:52:40;;;;;;;18.10;17.10;;;17.80;37.50;;;;;;4970275;28;20508;-55
2022/09/12 00:55:12;;;;;;;17.70;16.80;;;17.80;37.80;;;;;;4970427;28;20501;-55
2022/09/12 00:57:48;;;;;;;17.73;16.77;;;17.80;37.40;;;;;;4970023;28;20429;-55
2022/09/12 01:00:18;;;;;;;18.13;17.20;;;17.80;37.60;;;;;;4970561;28;20452;-54
2022/09/12 01:02:50;;;;;;;18.40;17.40;;;17.80;37.20;;;;;;4969893;28;20456;-54
2022/09/12 01:05:16;;;;;;;17.53;16.63;;;17.80;37.20;;;;;;4969916;28;20442;-56
2022/09/12 01:07:43;;;;;;;17.40;16.60;;;17.80;37.20;;;;;;4969507;28;20488;-56
2022/09/12 01:10:10;;;;;;;17.00;16.20;;;17.80;37.00;;;;;;4970199;28;20452;-56
2022/09/12 01:12:38;;;;;;;17.47;16.57;;;17.80;37.10;;;;;;4970736;28;20429;-56
2022/09/12 01:15:04;;;;;;;18.30;17.33;;;17.80;36.90;;;;;;4986868;28;20508;-56
2022/09/12 01:17:38;;;;;;;16.50;15.70;;;17.80;36.90;;;;;;4987151;28;20429;-55
2022/09/12 01:20:06;;;;;;;17.73;16.80;;;17.80;36.90;;;;;;4986834;28;20423;-57
2022/09/12 01:23:03;;;;;;;16.00;15.30;;;17.70;36.90;;;;;;4987360;28;20424;-55
2022/09/12 01:25:58;;;;;;;17.43;16.30;;;17.70;37.00;;;;;;4986510;28;20975;-57
2022/09/12 01:28:45;;;;;;;17.03;16.10;;;17.70;37.00;;;;;;4987551;28;20477;-56
2022/09/12 01:31:32;;;;;;;18.47;17.50;;;17.70;37.20;;;;;;4986628;28;20794;-56
2022/09/12 01:34:19;;;;;;;17.20;16.30;;;17.70;37.10;;;;;;4985914;28;20413;-54
2022/09/12 01:37:09;;;;;;;17.90;16.90;;;17.60;37.10;;;;;;4988730;28;20416;-55
2022/09/12 01:40:26;;;;;;;18.37;17.27;;;17.70;37.10;;;;;;4988620;28;20417;-55
2022/09/12 01:43:00;;;;;;;18.00;17.10;;;17.70;37.10;;;;;;4964029;28;20417;-55
2022/09/12 01:45:38;;;;;;;17.50;16.60;;;17.60;37.10;;;;;;4988671;28;20409;-55
2022/09/12 01:48:14;;;;;;;18.13;17.20;;;17.60;37.10;;;;;;4987727;28;20449;-54
2022/09/12 01:50:53;;;;;;;18.43;17.43;;;17.60;37.10;;;;;;4988365;28;20413;-55
2022/09/12 01:53:27;;;;;;;18.50;17.50;;;17.60;37.30;;;;;;4988774;28;20452;-53
2022/09/12 01:55:52;;;;;;;18.87;17.60;;;17.60;37.50;;;;;;4988620;28;20417;-54
2022/09/12 01:58:24;;;;;;;18.03;17.07;;;17.60;37.50;;;;;;4988849;28;20772;-56
2022/09/12 02:01:16;;;;;;;18.43;17.20;;;17.60;37.10;;;;;;4988708;28;20639;-56
2022/09/12 02:03:51;;;;;;;19.37;18.10;;;17.60;37.40;;;;;;4988616;28;20428;-57
2022/09/12 02:06:21;;;;;;;18.10;17.20;;;17.50;37.20;;;;;;4988256;28;20421;-57
2022/09/12 02:08:52;;;;;;;17.70;16.90;;;17.50;37.20;;;;;;4988173;28;20457;-57
2022/09/12 02:11:20;;;;;;;17.80;16.90;;;17.50;37.10;;;;;;4987558;28;20413;-57
2022/09/12 02:13:45;;;;;;;18.90;17.90;;;17.50;37.40;;;;;;4987879;28;20524;-55
2022/09/12 02:16:22;;;;;;;18.43;17.27;;;17.50;37.10;;;;;;4988044;28;20881;-56
2022/09/12 02:18:58;;;;;;;18.20;17.30;;;17.50;37.30;;;;;;4988056;28;20228;-57
2022/09/12 02:21:26;;;;;;;18.70;17.70;;;17.40;37.30;;;;;;4991946;28;20964;-57
2022/09/12 02:23:58;;;;;;;19.07;18.07;;;17.40;37.70;;;;;;4992254;28;20413;-57
2022/09/12 02:26:31;;;;;;;18.50;17.50;;;17.40;37.80;;;;;;4992172;28;20420;-56
2022/09/12 02:28:57;;;;;;;19.07;18.07;;;17.40;37.80;;;;;;4992208;28;20483;-57
2022/09/12 02:31:54;;;;;;;18.70;17.60;;;17.40;37.30;;;;;;4992286;28;20958;-57
2022/09/12 02:34:40;;;;;;;18.87;17.87;;;17.40;37.10;;;;;;4992273;28;20328;-57
2022/09/12 02:37:31;;;;;;;20.07;18.87;;;17.40;37.10;;;;;;4991895;28;20405;-55
2022/09/12 02:39:57;;;;;;;18.13;17.13;;;17.40;37.20;;;;;;4991840;28;20787;-57
2022/09/12 02:42:23;;;;;;;18.67;17.67;;;17.40;37.40;;;;;;4991689;28;20777;-56
2022/09/12 02:44:51;;;;;;;18.60;17.60;;;17.40;37.40;;;;;;4991686;28;20408;-57
2022/09/12 02:47:37;;;;;;;18.37;17.47;;;17.40;37.40;;;;;;4991376;28;20416;-56
2022/09/12 02:50:07;;;;;;;19.00;18.00;;;17.40;37.30;;;;;;4991526;28;20480;-57
2022/09/12 02:52:33;;;;;;;18.47;17.40;;;17.40;37.10;;;;;;4991349;28;20772;-56
2022/09/12 02:54:59;;;;;;;18.90;17.73;;;17.40;37.10;;;;;;4990723;28;20456;-57
2022/09/12 02:57:25;;;;;;;18.60;17.60;;;17.40;37.20;;;;;;4991090;28;20420;-56
2022/09/12 02:59:54;;;;;;;19.50;18.30;;;17.30;37.20;;;;;;4991132;28;20409;-57
2022/09/12 03:02:41;;;;;;;18.93;18.00;;;17.30;37.30;;;;;;4991643;28;20205;-56
2022/09/12 03:05:31;;;;;;;18.90;17.90;;;17.30;37.40;;;;;;4991502;28;20417;-56
2022/09/12 03:08:05;;;;;;;19.50;18.50;;;17.30;37.20;;;;;;4991663;28;20563;-56
2022/09/12 03:10:40;;;;;;;19.37;18.27;;;17.30;36.90;;;;;;4990822;28;20564;-54
2022/09/12 03:13:27;;;;;;;20.30;19.30;;;17.30;37.10;;;;;;4990725;28;20780;-55
2022/09/12 03:16:30;;;;;;;19.43;18.27;;;17.30;37.10;;;;;;4990982;28;20472;-57
2022/09/12 03:19:23;;;;;;;19.40;18.40;;;17.30;37.10;;;;;;4990171;28;20420;-57
2022/09/12 03:21:52;;;;;;;18.53;17.60;;;17.30;37.40;;;;;;4992064;28;20411;-55
2022/09/12 03:24:28;;;;;;;20.87;19.13;;;17.30;37.20;;;;;;4991011;28;20521;-56
2022/09/12 03:27:00;;;;;;;19.77;18.67;;;17.20;37.20;;;;;;4990649;28;20992;-57
2022/09/12 03:29:26;;;;;;;18.50;17.50;;;17.20;37.00;;;;;;4990485;28;20465;-57
2022/09/12 03:31:57;;;;;;;19.47;18.40;;;17.20;37.10;;;;;;4991231;28;20824;-57
2022/09/12 03:34:25;;;;;;;19.20;18.13;;;17.20;37.20;;;;;;4990734;28;20418;-57
2022/09/12 03:36:54;;;;;;;19.70;18.47;;;17.20;37.20;;;;;;4991948;28;20401;-58
2022/09/12 03:39:20;;;;;;;19.00;18.00;;;17.20;37.20;;;;;;4990652;28;20496;-57
2022/09/12 03:41:46;;;;;;;18.57;17.47;;;17.20;37.30;;;;;;4990609;28;20625;-56
2022/09/12 03:44:11;;;;;;;19.70;18.60;;;17.20;37.50;;;;;;4989753;28;20436;-57
2022/09/12 03:46:37;;;;;;;20.00;18.80;;;17.20;37.60;;;;;;4990579;28;20182;-57
2022/09/12 03:49:03;;;;;;;19.27;18.27;;;17.20;37.50;;;;;;4991896;28;20232;-56
2022/09/12 03:51:28;;;;;;;19.73;18.63;;;17.20;37.00;;;;;;4991816;28;20178;-56
2022/09/12 03:53:54;;;;;;;19.07;17.80;;;17.20;37.10;;;;;;4990423;28;20184;-55
2022/09/12 03:56:20;;;;;;;19.33;18.23;;;17.10;36.90;;;;;;4990223;28;20216;-55
2022/09/12 03:58:46;;;;;;;18.60;17.70;;;17.10;37.10;;;;;;4990312;28;20185;-56
2022/09/12 04:01:14;;;;;;;19.07;18.07;;;17.10;37.30;;;;;;4990302;28;20425;-57
2022/09/12 04:03:41;;;;;;;19.97;18.57;;;17.10;37.20;;;;;;4990717;28;20925;-57
2022/09/12 04:06:09;;;;;;;17.87;17.07;;;17.10;37.30;;;;;;4990341;28;20418;-57
2022/09/12 04:08:36;;;;;;;19.50;18.43;;;17.10;37.30;;;;;;4990213;28;20479;-58
2022/09/12 04:11:04;;;;;;;19.70;18.60;;;17.10;37.10;;;;;;4989543;28;20405;-58
2022/09/12 04:13:30;;;;;;;18.67;17.67;;;17.10;37.00;;;;;;4989892;28;20417;-57
2022/09/12 04:16:00;;;;;;;19.13;18.03;;;17.00;37.20;;;;;;4988600;28;20890;-58
2022/09/12 04:18:26;;;;;;;20.20;19.10;;;17.00;37.30;;;;;;4989237;28;20182;-56
2022/09/12 04:20:52;;;;;;;19.37;18.30;;;17.00;37.30;;;;;;4989740;28;20413;-55
2022/09/12 04:23:18;;;;;;;20.57;19.47;;;16.90;37.60;;;;;;4988292;28;20421;-48
2022/09/12 04:25:44;;;;;;;19.73;18.73;;;16.90;37.60;;;;;;4987732;28;20182;-51
2022/09/12 04:28:09;;;;;;;21.43;20.23;;;16.90;37.60;;;;;;4982839;28;20472;-50
2022/09/12 04:30:35;;;;;;;18.90;17.80;;;16.90;37.60;;;;;;4987903;28;20937;-52
2022/09/12 04:33:00;;;;;;;19.60;18.50;;;16.90;37.60;;;;;;4987950;28;20170;-51
2022/09/12 04:35:26;;;;;;;19.80;18.80;;;17.00;37.70;;;;;;4987563;28;20188;-53
2022/09/12 04:37:52;;;;;;;20.60;19.27;;;17.00;37.60;;;;;;4987128;28;20277;-54
2022/09/12 04:40:18;;;;;;;19.37;18.27;;;16.90;37.20;;;;;;4988291;28;20575;-57
2022/09/12 04:42:44;;;;;;;19.57;18.57;;;16.90;37.10;;;;;;4988620;28;20177;-56
2022/09/12 04:45:10;;;;;;;20.73;19.53;;;16.90;37.20;;;;;;4988825;28;20778;-54
2022/09/12 04:47:36;;;;;;;20.60;19.40;;;17.00;37.20;;;;;;4990457;28;20288;-57
2022/09/12 04:50:01;;;;;;;20.33;19.20;;;17.00;37.10;;;;;;4988168;28;20859;-56
2022/09/12 04:52:27;;;;;;;19.17;18.17;;;16.90;37.30;;;;;;4989611;28;20945;-56
2022/09/12 04:54:52;;;;;;;18.70;17.80;;;16.90;37.20;;;;;;4988877;28;20667;-56
2022/09/12 04:57:18;;;;;;;21.53;20.00;;;16.90;37.10;;;;;;4988530;28;20170;-56
2022/09/12 04:59:44;;;;;;;20.37;19.30;;;16.90;38.10;;;;;;4988487;28;20178;-56
2022/09/12 05:02:09;;;;;;;20.30;19.00;;;16.90;37.10;;;;;;4988453;28;20180;-56
2022/09/12 05:04:35;;;;;;;21.30;20.00;;;16.90;37.30;;;;;;4988373;28;20174;-54
2022/09/12 05:07:01;;;;;;;21.03;19.60;;;16.90;37.30;;;;;;4986349;28;20190;-55
2022/09/12 05:09:28;;;;;;;20.13;19.03;;;16.90;37.20;;;;;;4988244;28;20204;-55
2022/09/12 05:11:53;;;;;;;20.53;19.40;;;16.90;37.60;;;;;;4985087;28;20418;-56
2022/09/12 05:14:19;;;;;;;20.10;18.80;;;16.90;37.60;;;;;;4969362;28;20510;-56
2022/09/12 05:16:45;;;;;;;20.40;19.10;;;16.90;37.10;;;;;;4974601;28;20613;-55
2022/09/12 05:19:11;;;;;;;20.47;19.40;;;16.90;37.30;;;;;;4985719;28;20179;-55
2022/09/12 05:21:36;;;;;;;20.30;19.17;;;16.90;37.60;;;;;;4988755;28;20934;-55
2022/09/12 05:26:46;;;;;;;20.30;19.17;;;16.80;37.10;;;;;;5038387;22;20240;-43
2022/09/12 05:29:12;;;;;;;20.60;19.40;;;16.80;37.10;;;;;;5012313;28;20486;-48
2022/09/12 05:31:38;;;;;;;20.80;19.53;;;16.80;37.50;;;;;;5027947;28;20179;-44
2022/09/12 05:34:05;;;;;;;20.40;19.10;;;16.80;37.50;;;;;;5030533;28;20421;-42
2022/09/12 05:36:31;;;;;;;20.70;19.50;;;16.80;37.50;;;;;;5012297;28;20806;-44
2022/09/12 05:38:58;;;;;;;20.37;19.17;;;16.80;37.50;;;;;;5011035;28;20445;-49
2022/09/12 05:41:28;;;;;;;19.70;18.60;;;16.70;37.10;;;;;;5011617;28;20177;-48
2022/09/12 05:43:56;;;;;;;20.43;19.33;;;16.60;37.30;;;;;;5011358;28;20506;-46
2022/09/12 05:46:24;;;;;;;20.20;18.77;;;16.60;37.30;;;;;;5012034;28;20853;-47
2022/09/12 05:48:50;;;;;;;21.67;20.23;;;16.70;37.40;;;;;;5011700;28;20875;-46
2022/09/12 05:51:19;;;;;;;20.10;19.00;;;16.70;37.40;;;;;;5012107;28;20415;-45
2022/09/12 05:53:51;;;;;;;19.10;18.00;;;16.80;37.40;;;;;;5011620;28;20536;-46
2022/09/12 05:56:19;;;;;;;21.73;20.40;;;16.80;37.00;;;;;;5026425;28;20964;-48
2022/09/12 05:58:54;;;;;;;22.03;20.40;;;16.90;37.00;;;;;;5012268;28;20514;-46
2022/09/12 06:01:20;;;;;;;19.70;18.63;;;16.90;36.70;;;;;;5010608;28;20415;-45
2022/09/12 06:03:48;;;;;;;20.70;19.50;;;16.90;36.50;;;;;;5011050;28;20454;-45
2022/09/12 06:06:15;;;;;;;19.53;18.57;;;16.90;36.50;;;;;;5012697;28;20587;-46
2022/09/12 06:08:43;;;;;;;20.13;18.90;;;16.90;36.70;;;;;;5011679;28;20470;-45
2022/09/12 06:11:12;;;;;;;21.03;19.63;;;16.90;37.00;;;;;;5012037;28;20473;-46
2022/09/12 06:13:39;;;;;;;20.00;18.97;;;16.90;37.00;;;;;;5012080;28;20412;-44
2022/09/12 06:16:07;;;;;;;20.30;19.20;;;17.00;37.00;;;;;;5013626;28;20491;-46
2022/09/12 06:18:34;;;;;;;19.67;18.67;;;17.00;36.80;;;;;;5011697;28;20477;-44
2022/09/12 06:21:09;;;;;;;21.10;19.97;;;17.00;36.90;;;;;;5012107;28;20411;-46
2022/09/12 06:23:36;;;;;;;20.73;19.30;;;17.00;36.70;;;;;;5011876;28;20923;-46
2022/09/12 06:26:03;;;;;;;20.50;18.87;;;17.00;36.70;;;;;;5011502;28;20844;-44
2022/09/12 06:28:29;;;;;;;19.37;18.37;;;17.00;37.60;;;;;;5012166;28;20806;-43
2022/09/12 06:31:05;;;;;;;20.50;18.77;;;17.00;37.20;;;;;;5011896;28;20459;-47
2022/09/12 06:33:33;;;;;;;19.67;18.57;;;17.10;37.20;;;;;;5043897;28;20415;-45
2022/09/12 06:36:03;;;;;;;18.60;17.60;;;17.20;37.00;;;;;;5012229;28;20949;-46
2022/09/12 06:38:30;;;;;;;20.20;19.07;;;17.20;36.80;;;;;;5029933;28;20558;-45
2022/09/12 06:40:56;;;;;;;19.20;18.20;;;17.10;36.80;;;;;;5012052;28;20422;-43
2022/09/12 06:43:21;;;;;;;19.30;18.30;;;17.10;37.50;;;;;;5013252;28;20459;-44
2022/09/12 06:45:48;;;;;;;20.37;19.20;;;17.10;37.40;;;;;;5030461;28;20455;-43
2022/09/12 06:48:13;;;;;;;19.77;18.47;;;17.20;37.30;;;;;;5012796;28;20204;-46
2022/09/12 06:50:39;;;;;;;20.43;19.30;;;17.20;37.20;;;;;;5012381;28;20423;-45
2022/09/12 06:53:05;;;;;;;19.20;18.10;;;17.30;37.20;;;;;;5012593;28;20667;-48
2022/09/12 06:55:30;;;;;;;19.83;18.63;;;17.20;37.40;;;;;;5012794;28;20181;-45
2022/09/12 06:57:56;;;;;;;19.90;18.63;;;17.10;37.70;;;;;;5012522;28;20173;-45
2022/09/12 07:00:22;;;;;;;20.33;19.23;;;17.10;37.80;;;;;;5012280;28;20181;-48
2022/09/12 07:02:48;;;;;;;19.00;17.80;;;17.10;37.80;;;;;;5012152;28;20414;-43
2022/09/12 07:05:14;;;;;;;20.00;18.90;;;17.10;37.70;;;;;;5013361;28;20232;-45
2022/09/12 07:07:39;;;;;;;19.83;18.13;;;17.10;38.00;;;;;;5016030;28;20601;-43
2022/09/12 07:10:05;;;;;;;19.03;17.97;;;17.10;38.10;;;;;;5015938;28;20419;-43
2022/09/12 07:12:31;;;;;;;19.57;18.47;;;17.10;38.20;;;;;;5015749;28;20183;-46
2022/09/12 07:14:56;;;;;;;19.40;18.10;;;17.00;38.00;;;;;;5015743;28;20490;-42
2022/09/12 07:17:22;;;;;;;20.07;18.87;;;17.00;38.20;;;;;;5034147;28;20695;-42
2022/09/12 07:19:48;;;;;;;20.30;19.23;;;17.00;38.30;;;;;;5033031;28;20264;-43
2022/09/12 07:22:13;;;;;;;19.73;18.70;;;17.00;38.60;;;;;;5015107;28;20263;-42
2022/09/12 07:24:40;;;;;;;20.10;18.90;;;17.00;39.20;;;;;;5014894;28;20592;-45
2022/09/12 07:27:05;;;;;;;20.00;18.80;;;17.00;38.70;;;;;;5015049;28;20229;-45
2022/09/12 07:29:31;;;;;;;20.70;19.50;;;17.00;39.00;;;;;;5015681;28;20455;-45
2022/09/12 07:31:57;;;;;;;19.57;18.07;;;17.10;38.70;;;;;;5015415;28;20196;-47
2022/09/12 07:34:22;;;;;;;20.90;19.10;;;17.20;38.60;;;;;;5015575;28;20636;-48
2022/09/12 07:36:48;;;;;;;21.13;19.83;;;17.20;38.50;;;;;;5033577;28;20489;-48
2022/09/12 07:39:14;;;;;;;19.13;18.13;;;17.20;38.00;;;;;;5033357;28;20258;-46
2022/09/12 07:41:39;;;;;;;20.37;18.93;;;17.20;37.80;;;;;;5015647;28;20180;-48
2022/09/12 07:44:07;;;;;;;20.20;19.00;;;17.30;37.90;;;;;;5015536;28;20739;-52
2022/09/12 07:46:34;;;;;;;20.50;19.27;;;17.40;38.00;;;;;;5033361;28;20181;-46
2022/09/12 07:49:00;;;;;;;20.63;19.10;;;17.50;37.80;;;;;;5015834;28;20466;-44
2022/09/12 07:51:27;;;;;;;19.93;18.80;;;17.50;37.30;;;;;;5015286;28;20783;-44
2022/09/12 07:53:53;;;;;;;18.03;17.13;;;17.60;37.30;;;;;;5015079;28;20841;-47
2022/09/12 07:56:20;;;;;;;18.10;17.10;;;17.80;36.80;;;;;;5015377;28;20816;-44
2022/09/12 07:58:46;;;;;;;17.70;16.80;;;17.90;36.40;;;;;;5015002;28;20489;-46
2022/09/12 08:01:14;;;;;;;19.63;18.33;;;18.00;36.20;;;;;;5015376;28;20833;-47
2022/09/12 08:03:41;;;;;;;20.27;19.00;;;18.10;36.00;;;;;;5015319;28;20415;-48
2022/09/12 08:06:09;;;;;;;19.43;18.23;;;18.20;35.20;;;;;;5015334;28;20491;-44
2022/09/12 08:08:35;;;;;;;20.40;18.90;;;18.20;35.30;;;;;;5014796;28;20521;-47
2022/09/12 08:11:07;;;;;;;19.40;18.20;;;18.30;35.30;;;;;;5015084;28;20529;-47
2022/09/12 08:13:34;;;;;;;17.87;16.87;;;18.20;35.00;;;;;;5015406;28;20419;-45
2022/09/12 08:16:03;;;;;;;19.80;18.63;;;18.20;35.40;;;;;;5014646;28;20411;-48
2022/09/12 08:18:29;;;;;;;19.30;18.10;;;18.20;34.70;;;;;;5014372;28;20469;-52
2022/09/12 08:21:00;;;;;;;20.40;19.10;;;18.20;35.10;;;;;;5014317;28;20491;-53
2022/09/12 08:23:29;;;;;;;18.60;17.50;;;18.20;34.70;;;;;;5015224;28;20415;-52
2022/09/12 08:25:56;;;;;;;21.67;20.23;;;18.30;35.40;;;;;;5014577;28;20435;-45
2022/09/12 08:28:23;;;;;;;19.07;18.07;;;18.30;35.30;;;;;;5013380;28;20550;-51
2022/09/12 08:30:49;;;;;;;18.37;17.37;;;18.40;34.20;;;;;;5013776;28;20416;-47
2022/09/12 08:33:14;;;;;;;19.30;17.40;;;18.50;34.20;;;;;;5013027;28;20424;-46
2022/09/12 08:35:40;;;;;;;19.23;18.07;;;18.50;34.00;;;;;;5013677;28;20415;-51
2022/09/12 08:38:05;;;;;;;16.87;15.97;;;18.60;33.70;;;;;;5013508;28;20762;-52
2022/09/12 08:40:41;;;;;;;19.20;17.70;;;18.70;32.80;;;;;;5014659;28;20175;-53
2022/09/12 08:43:32;;;;;;;18.73;17.30;;;18.70;33.50;;;;;;5012055;28;20278;-51
2022/09/12 08:46:17;;;;;;;17.53;16.63;;;18.80;33.40;;;;;;5014665;28;20408;-49
2022/09/12 08:48:45;;;;;;;16.47;15.67;;;18.90;33.40;;;;;;5014818;28;20461;-47
2022/09/12 08:51:15;;;;;;;17.23;16.43;;;18.90;32.20;;;;;;5014770;28;20415;-46
2022/09/12 08:53:42;;;;;;;17.30;16.00;;;19.00;32.00;;;;;;5015102;28;20438;-45
2022/09/12 08:56:10;;;;;;;17.43;16.43;;;19.10;31.40;;;;;;5014640;28;20447;-48
2022/09/12 08:58:42;;;;;;;17.07;16.17;;;19.10;32.10;;;;;;5014076;28;20426;-50
2022/09/12 09:01:23;;;;;;;17.30;16.30;;;19.20;30.60;;;;;;5013084;28;20476;-50
2022/09/12 09:04:07;;;;;;;17.10;16.30;;;19.30;30.00;;;;;;5011972;28;20561;-46
2022/09/12 09:07:01;;;;;;;16.50;15.70;;;19.50;29.70;;;;;;5046460;28;20417;-47
2022/09/12 09:09:35;;;;;;;16.70;15.90;;;19.80;29.80;;;;;;5030851;28;20451;-48
2022/09/12 09:12:19;;;;;;;17.10;16.20;;;20.10;29.20;;;;;;5014350;28;20419;-50
2022/09/12 09:15:27;;;;;;;16.10;15.40;;;20.50;28.60;;;;;;5014238;28;20398;-48
2022/09/12 09:18:09;;;;;;;16.63;15.73;;;20.70;27.40;;;;;;5014294;28;20442;-46
2022/09/12 09:20:45;;;;;;;15.73;14.93;;;20.90;26.50;;;;;;5014896;28;20473;-46
2022/09/12 09:23:14;;;;;;;15.70;15.10;;;21.10;26.10;;;;;;5014586;28;20497;-47
2022/09/12 09:25:45;;;;;;;17.10;16.20;;;21.30;25.70;;;;;;5014494;28;20467;-49
2022/09/12 09:28:28;;;;;;;15.80;15.10;;;21.30;25.20;;;;;;5013111;28;20470;-46
2022/09/12 09:30:54;;;;;;;15.07;14.20;;;21.30;24.80;;;;;;5045834;28;20976;-47
2022/09/12 09:33:24;;;;;;;17.07;16.13;;;21.30;25.20;;;;;;5014266;28;20476;-48
2022/09/12 09:36:06;;;;;;;16.73;15.67;;;21.50;24.80;;;;;;5013576;28;20411;-49
2022/09/12 09:38:54;;;;;;;15.83;14.90;;;21.60;24.40;;;;;;5014296;28;20786;-48
2022/09/12 09:41:25;;;;;;;16.00;15.20;;;21.70;24.90;;;;;;5013240;28;20932;-47
2022/09/12 09:43:51;;;;;;;15.30;14.70;;;21.80;23.50;;;;;;5014160;28;20458;-49
2022/09/12 09:46:17;;;;;;;15.53;14.63;;;21.90;24.20;;;;;;5014610;28;20455;-45
2022/09/12 09:48:47;;;;;;;16.00;15.10;;;22.00;23.00;;;;;;5014444;28;20204;-49
2022/09/12 09:51:19;;;;;;;15.00;14.10;;;22.10;23.10;;;;;;5013928;28;20252;-53
2022/09/12 09:54:04;;;;;;;15.40;14.70;;;22.10;22.70;;;;;;5013607;28;20884;-49
2022/09/12 09:56:32;;;;;;;14.30;13.70;;;22.20;23.20;;;;;;5012854;28;20907;-49
2022/09/12 09:59:17;;;;;;;15.20;14.40;;;22.40;23.30;;;;;;5013328;28;20414;-47
2022/09/12 10:02:02;;;;;;;14.40;13.70;;;22.50;22.60;;;;;;5012479;28;20419;-43
2022/09/12 10:04:37;;;;;;;14.80;14.17;;;22.60;21.90;;;;;;5010975;28;20954;-43
2022/09/12 10:07:04;;;;;;;14.33;13.80;;;22.70;22.40;;;;;;5012486;28;20411;-41
2022/09/12 10:09:35;;;;;;;14.80;14.20;;;22.70;21.40;;;;;;5013201;28;20462;-46
2022/09/12 10:12:20;;;;;;;14.20;13.60;;;22.70;20.40;;;;;;5013512;28;20510;-45
2022/09/12 10:14:58;;;;;;;13.50;13.00;;;22.70;19.10;;;;;;5014027;28;20418;-42
2022/09/12 10:17:38;;;;;;;13.20;12.70;;;22.70;18.20;;;;;;5031739;28;20765;-45
2022/09/12 10:20:25;;;;;;;13.80;13.20;;;22.70;19.20;;;;;;5013830;28;20841;-48
2022/09/12 10:22:50;;;;;;;13.30;12.80;;;22.80;19.50;;;;;;5013844;28;20827;-41
2022/09/12 10:25:19;;;;;;;12.97;12.47;;;22.90;17.50;;;;;;5013763;28;20432;-44
2022/09/12 10:27:56;;;;;;;13.60;13.10;;;23.00;18.10;;;;;;5013828;28;20201;-46
2022/09/12 10:30:27;;;;;;;13.90;13.40;;;23.00;16.80;;;;;;5013734;28;20407;-44
2022/09/12 10:33:05;;;;;;;13.17;12.60;;;23.00;16.60;;;;;;5013918;28;20419;-41
2022/09/12 10:35:43;;;;;;;13.53;13.03;;;23.00;17.10;;;;;;5014082;28;20510;-43
2022/09/12 10:38:24;;;;;;;12.83;12.43;;;23.10;16.50;;;;;;5013837;28;20538;-42
2022/09/12 10:40:58;;;;;;;12.67;12.17;;;23.10;16.20;;;;;;5015036;28;20477;-41
2022/09/12 10:43:33;;;;;;;12.30;11.90;;;23.20;16.30;;;;;;5017745;28;20419;-42
2022/09/12 10:46:14;;;;;;;13.03;12.53;;;23.10;15.70;;;;;;5017653;28;20493;-42
2022/09/12 10:48:50;;;;;;;13.37;12.67;;;23.10;14.60;;;;;;5017606;28;20462;-42
2022/09/12 10:51:25;;;;;;;12.80;12.40;;;23.10;14.90;;;;;;5017488;28;20943;-44
2022/09/12 10:53:56;;;;;;;12.67;12.20;;;23.20;15.10;;;;;;5017369;28;20418;-45
2022/09/12 10:57:08;;;;;;;12.43;12.03;;;23.20;15.30;;;;;;5017401;28;20415;-43
2022/09/12 10:59:55;;;;;;;12.43;12.03;;;23.30;15.30;;;;;;4994556;28;20510;-45
2022/09/12 11:02:38;;;;;;;12.07;11.67;;;23.30;15.10;;;;;;5017313;28;20423;-44
2022/09/12 11:05:14;;;;;;;13.53;12.93;;;23.30;15.30;;;;;;5017183;28;20408;-42
2022/09/12 11:08:08;;;;;;;12.50;12.00;;;23.30;15.70;;;;;;5017272;28;21009;-43
2022/09/12 11:11:01;;;;;;;12.60;12.10;;;23.30;15.20;;;;;;5017070;28;20969;-42
2022/09/12 11:13:38;;;;;;;12.00;11.60;;;23.30;15.30;;;;;;5017178;28;20415;-42
2022/09/12 11:16:23;;;;;;;12.90;12.20;;;23.30;15.30;;;;;;5017062;28;20433;-43
2022/09/12 11:19:20;;;;;;;12.77;12.27;;;23.30;15.30;;;;;;5016928;28;20538;-43
2022/09/12 11:22:00;;;;;;;12.17;11.67;;;23.20;15.30;;;;;;5011144;28;20906;-44
2022/09/12 11:24:36;;;;;;;13.40;12.10;;;23.20;14.30;;;;;;5016995;28;20407;-42
2022/09/12 11:27:10;;;;;;;13.13;12.50;;;23.10;14.60;;;;;;5016813;28;20430;-44
2022/09/12 11:29:45;;;;;;;12.43;11.93;;;23.30;13.80;;;;;;5016740;28;20454;-44
2022/09/12 11:32:20;;;;;;;12.13;11.63;;;23.50;13.20;;;;;;5016619;28;20415;-44
2022/09/12 11:35:26;;;;;;;11.80;11.30;;;23.50;13.40;;;;;;5016660;28;20413;-44
2022/09/12 11:38:21;;;;;;;11.33;10.93;;;23.50;13.70;;;;;;5016528;28;20431;-48
2022/09/12 11:40:59;;;;;;;11.90;11.30;;;23.40;13.60;;;;;;5016422;28;20414;-44
2022/09/12 11:43:43;;;;;;;12.03;11.63;;;23.40;14.20;;;;;;5016487;28;20435;-41
2022/09/12 11:46:33;;;;;;;12.87;11.97;;;23.30;15.30;;;;;;5016474;28;20411;-46
2022/09/12 11:49:05;;;;;;;13.17;12.67;;;23.40;14.90;;;;;;5016354;28;20459;-42
2022/09/12 11:52:05;;;;;;;11.33;10.93;;;23.60;13.30;;;;;;5016033;28;20466;-45
2022/09/12 11:54:50;;;;;;;11.93;11.43;;;23.90;12.40;;;;;;5016366;28;20930;-43
2022/09/12 11:57:34;;;;;;;11.20;10.80;;;23.90;11.60;;;;;;5016241;28;20425;-46
2022/09/12 12:00:03;;;;;;;10.93;10.63;;;23.90;11.30;;;;;;5015902;28;20415;-45
2022/09/12 12:02:36;;;;;;;11.30;10.90;;;23.80;11.70;;;;;;5016425;28;20477;-45
2022/09/12 12:05:19;;;;;;;10.33;9.97;;;23.70;11.20;;;;;;5016064;28;20771;-48
2022/09/12 12:07:57;;;;;;;10.50;10.20;;;23.60;11.30;;;;;;5015841;28;20455;-43
2022/09/12 12:10:42;;;;;;;10.70;10.20;;;23.60;11.10;;;;;;5015771;28;20407;-44
2022/09/12 12:16:37;;;;;;;10.50;10.13;;;24.00;10.80;;;;;;5033858;28;20407;-46
2022/09/12 12:19:35;;;;;;;10.10;9.80;;;23.90;10.70;;;;;;5015648;28;20871;-46
2022/09/12 12:22:17;;;;;;;10.07;9.77;;;23.80;11.50;;;;;;5015541;28;20985;-41
2022/09/12 12:24:54;;;;;;;10.50;10.20;;;23.70;12.60;;;;;;5015653;28;20503;-43
2022/09/12 12:27:43;;;;;;;10.30;10.00;;;23.80;12.60;;;;;;5015778;28;20415;-41
2022/09/12 12:30:29;;;;;;;10.40;10.00;;;23.90;11.80;;;;;;5015309;28;20476;-41
2022/09/12 12:33:05;;;;;;;10.97;10.57;;;23.90;12.00;;;;;;4975837;28;20486;-43
2022/09/12 12:36:00;;;;;;;11.07;10.53;;;23.90;12.40;;;;;;5033499;28;20441;-44
2022/09/12 12:38:26;;;;;;;10.77;10.37;;;24.00;12.00;;;;;;5015532;28;20414;-44
2022/09/12 12:40:51;;;;;;;10.47;10.17;;;24.00;12.20;;;;;;5015162;28;20993;-43
2022/09/12 12:43:30;;;;;;;10.97;10.47;;;24.00;11.00;;;;;;5015510;28;20187;-43
2022/09/12 12:46:04;;;;;;;11.20;10.70;;;24.10;11.00;;;;;;5015494;28;20271;-40
2022/09/12 12:48:34;;;;;;;11.10;10.70;;;24.10;11.80;;;;;;5015340;28;20462;-42
2022/09/12 12:51:30;;;;;;;10.50;10.10;;;24.10;11.90;;;;;;5015036;28;20473;-43
2022/09/12 12:53:57;;;;;;;11.27;10.87;;;24.20;11.90;;;;;;5033188;28;20403;-45
2022/09/12 12:56:39;;;;;;;10.97;10.43;;;24.20;12.20;;;;;;5015160;28;20404;-43
2022/09/12 12:59:20;;;;;;;10.37;10.07;;;24.10;13.00;;;;;;5015087;28;20426;-41
2022/09/12 13:01:53;;;;;;;10.93;10.50;;;24.10;12.20;;;;;;5014870;28;20415;-44